Time;durP1;ratioP1;P1;durP2;ratioP2;P2;SDS_P1;SDS_P2;PMS_P1;PMS_P2;Temp;Humidity;BMP_temperature;BMP_pressure;BME280_temperature;BME280_humidity;BME280_pressure;Samples;Min_cycle;Max_cycle;Signal;HPM_P1;HPM_P2
2021/03/28 00:00:07;;;;;;;10.65;2.90;;;7.80;99.90;;;;;;4191775;28;20067;-69
2021/03/28 00:02:27;;;;;;;10.63;3.08;;;7.80;99.90;;;;;;4189047;28;20111;-69
2021/03/28 00:04:40;;;;;;;13.00;3.45;;;7.90;99.90;;;;;;4185955;28;20044;-69
2021/03/28 00:06:50;;;;;;;10.52;3.80;;;7.90;99.90;;;;;;4181841;28;20032;-69
2021/03/28 00:09:24;;;;;;;7.80;2.97;;;7.90;99.90;;;;;;4186421;28;20119;-69
2021/03/28 00:11:25;;;;;;;11.20;3.35;;;7.80;99.90;;;;;;4192108;28;20032;-69
2021/03/28 00:13:28;;;;;;;10.05;3.72;;;7.80;99.90;;;;;;4191508;28;20025;-69
2021/03/28 00:15:35;;;;;;;7.45;3.08;;;7.80;99.90;;;;;;4192099;28;20047;-69
2021/03/28 00:17:46;;;;;;;14.20;3.70;;;7.80;99.90;;;;;;4190440;28;20076;-69
2021/03/28 00:20:12;;;;;;;13.88;3.40;;;7.80;99.90;;;;;;4191979;28;20476;-69
2021/03/28 00:22:22;;;;;;;13.75;3.65;;;7.90;99.90;;;;;;4173435;28;20036;-69
2021/03/28 00:24:30;;;;;;;11.05;3.47;;;7.90;99.90;;;;;;4208617;28;20414;-69
2021/03/28 00:26:44;;;;;;;12.90;3.33;;;7.80;99.90;;;;;;4206141;28;20032;-69
2021/03/28 00:28:50;;;;;;;8.85;3.28;;;7.90;99.90;;;;;;4205063;28;20101;-69
2021/03/28 00:30:52;;;;;;;13.18;3.72;;;7.90;99.90;;;;;;4205025;28;20145;-69
2021/03/28 00:33:24;;;;;;;13.90;3.55;;;7.80;99.90;;;;;;4199919;28;20536;-69
2021/03/28 00:35:33;;;;;;;11.40;3.50;;;7.80;99.90;;;;;;4199896;28;20417;-69
2021/03/28 00:37:34;;;;;;;9.68;3.30;;;7.80;99.90;;;;;;4199906;28;20063;-69
2021/03/28 00:39:42;;;;;;;12.60;3.50;;;7.90;99.90;;;;;;4205034;28;20156;-69
2021/03/28 00:41:56;;;;;;;7.85;3.25;;;7.80;99.90;;;;;;4207060;28;20510;-69
2021/03/28 00:44:24;;;;;;;8.38;3.25;;;7.80;99.90;;;;;;4210041;28;20103;-69
2021/03/28 00:46:52;;;;;;;11.60;3.95;;;7.80;99.90;;;;;;4184418;28;20480;-69
2021/03/28 00:48:55;;;;;;;11.50;3.65;;;7.80;99.90;;;;;;4178741;28;20044;-69
2021/03/28 00:51:15;;;;;;;13.70;3.33;;;7.80;99.90;;;;;;4152423;28;20040;-69
2021/03/28 00:53:45;;;;;;;13.90;3.67;;;7.80;99.90;;;;;;4177158;28;20029;-69
2021/03/28 00:55:59;;;;;;;13.90;3.80;;;7.70;99.90;;;;;;4191103;28;20089;-69
2021/03/28 00:58:07;;;;;;;11.32;3.35;;;7.70;99.90;;;;;;4179004;28;20072;-69
2021/03/28 01:00:29;;;;;;;11.27;3.67;;;7.70;99.90;;;;;;4177114;28;20033;-69
2021/03/28 01:02:35;;;;;;;14.47;3.70;;;7.80;99.90;;;;;;4176440;28;20099;-69
2021/03/28 01:04:51;;;;;;;11.80;3.75;;;7.80;99.90;;;;;;4178274;28;20041;-69
2021/03/28 01:06:57;;;;;;;11.65;3.63;;;7.80;99.90;;;;;;4186774;28;20067;-69
2021/03/28 01:09:36;;;;;;;9.85;3.55;;;7.80;99.90;;;;;;4174350;28;20036;-69
2021/03/28 01:12:05;;;;;;;12.30;3.80;;;7.80;99.90;;;;;;4177122;28;20029;-69
2021/03/28 01:14:18;;;;;;;9.05;3.40;;;7.80;99.90;;;;;;4189907;28;20028;-69
2021/03/28 01:16:34;;;;;;;13.45;3.72;;;7.80;99.90;;;;;;4193344;28;20051;-69
2021/03/28 01:18:56;;;;;;;12.65;3.97;;;7.80;99.90;;;;;;4192638;28;20033;-69
2021/03/28 01:21:34;;;;;;;15.52;3.80;;;7.80;99.90;;;;;;4189978;28;20033;-69
2021/03/28 01:23:37;;;;;;;13.00;3.38;;;7.80;99.90;;;;;;4178201;28;20368;-69
2021/03/28 01:26:09;;;;;;;11.55;3.60;;;7.70;99.90;;;;;;4194635;28;20027;-69
2021/03/28 01:28:30;;;;;;;9.73;3.45;;;7.80;99.90;;;;;;4177070;28;20045;-69
2021/03/28 01:30:58;;;;;;;12.80;3.80;;;7.80;99.90;;;;;;4194129;28;20473;-69
2021/03/28 01:33:06;;;;;;;13.48;3.47;;;7.90;99.90;;;;;;4176870;28;20040;-69
2021/03/28 01:35:10;;;;;;;13.57;3.67;;;7.90;99.90;;;;;;4177311;28;20605;-69
2021/03/28 01:37:20;;;;;;;10.75;3.42;;;7.90;99.90;;;;;;4177701;28;20066;-69
2021/03/28 01:39:24;;;;;;;9.60;2.95;;;7.80;99.90;;;;;;4177260;28;20037;-69
2021/03/28 01:41:31;;;;;;;10.95;3.22;;;7.80;99.90;;;;;;4175060;28;20581;-69
2021/03/28 01:43:50;;;;;;;11.90;3.72;;;7.80;99.90;;;;;;4177145;28;20362;-69
2021/03/28 01:46:01;;;;;;;10.35;2.97;;;7.80;99.90;;;;;;4177317;28;20385;-69
2021/03/28 01:48:11;;;;;;;13.70;3.42;;;7.80;99.90;;;;;;4175862;28;20035;-69
2021/03/28 01:50:23;;;;;;;10.32;2.83;;;7.80;99.90;;;;;;4187838;28;20036;-69
2021/03/28 01:52:37;;;;;;;8.48;2.85;;;7.80;99.90;;;;;;4152932;28;20370;-69
2021/03/28 01:55:06;;;;;;;10.25;3.00;;;7.80;99.90;;;;;;4177383;28;20025;-69
2021/03/28 01:57:24;;;;;;;11.40;3.13;;;7.80;99.90;;;;;;4177388;28;20257;-69
2021/03/28 02:00:07;;;;;;;13.77;2.97;;;7.80;99.90;;;;;;4169802;28;20063;-69
2021/03/28 02:02:34;;;;;;;9.93;2.60;;;7.70;99.90;;;;;;4198271;28;20013;-69
2021/03/28 02:04:56;;;;;;;6.97;3.00;;;7.70;99.90;;;;;;4189737;28;20028;-69
2021/03/28 02:07:17;;;;;;;9.07;2.80;;;7.70;99.90;;;;;;4192652;28;20112;-69
2021/03/28 02:09:40;;;;;;;11.75;2.80;;;7.70;99.90;;;;;;4186510;28;20021;-69
2021/03/28 02:11:58;;;;;;;8.75;3.55;;;7.80;99.90;;;;;;4186204;28;20058;-69
2021/03/28 02:14:23;;;;;;;8.20;2.55;;;7.80;99.90;;;;;;4188622;28;20610;-69
2021/03/28 02:16:29;;;;;;;11.18;2.97;;;7.70;99.90;;;;;;4178562;28;20030;-69
2021/03/28 02:18:47;;;;;;;16.13;3.20;;;7.70;99.90;;;;;;4189000;28;20101;-69
2021/03/28 02:20:54;;;;;;;9.48;3.00;;;7.70;99.90;;;;;;4204298;28;20465;-69
2021/03/28 02:23:06;;;;;;;10.48;3.25;;;7.70;99.90;;;;;;4210292;28;20032;-69
2021/03/28 02:25:18;;;;;;;14.38;3.45;;;7.70;99.90;;;;;;4200333;28;20032;-69
2021/03/28 02:27:27;;;;;;;12.52;3.78;;;7.70;99.90;;;;;;4202092;28;20055;-69
2021/03/28 02:29:38;;;;;;;8.18;3.00;;;7.70;99.90;;;;;;4206558;28;20071;-69
2021/03/28 02:31:50;;;;;;;10.02;3.03;;;7.70;99.90;;;;;;4208446;28;20066;-69
2021/03/28 02:34:09;;;;;;;9.15;3.13;;;7.70;99.90;;;;;;4202582;28;20082;-69
2021/03/28 02:36:13;;;;;;;10.48;3.25;;;7.70;99.90;;;;;;4201643;28;20062;-69
2021/03/28 02:38:43;;;;;;;9.57;2.72;;;7.70;99.90;;;;;;4209639;28;20522;-69
2021/03/28 02:41:11;;;;;;;9.70;3.20;;;7.70;99.90;;;;;;4204559;28;20504;-69
2021/03/28 02:43:36;;;;;;;11.57;3.00;;;7.60;99.90;;;;;;4153791;28;20036;-69
2021/03/28 02:45:44;;;;;;;13.00;2.95;;;7.60;99.90;;;;;;4186714;28;20070;-69
2021/03/28 02:47:51;;;;;;;7.20;3.03;;;7.60;99.90;;;;;;4185115;28;20029;-69
2021/03/28 02:50:00;;;;;;;9.70;3.17;;;7.60;99.90;;;;;;4178653;28;20068;-69
2021/03/28 02:52:39;;;;;;;9.13;2.80;;;7.60;99.90;;;;;;4186874;28;20116;-69
2021/03/28 02:54:54;;;;;;;9.75;3.08;;;7.60;99.90;;;;;;4180845;28;20039;-69
2021/03/28 02:57:04;;;;;;;9.77;3.13;;;7.50;99.90;;;;;;4189775;28;20032;-70
2021/03/28 02:59:41;;;;;;;7.85;2.95;;;7.60;99.90;;;;;;4175726;28;20045;-69
2021/03/28 03:02:13;;;;;;;5.60;2.35;;;7.60;99.90;;;;;;4173031;28;20047;-69
2021/03/28 03:04:19;;;;;;;9.38;2.85;;;7.60;99.90;;;;;;4183446;28;20051;-69
2021/03/28 03:06:39;;;;;;;9.63;2.78;;;7.50;99.90;;;;;;4168311;28;20041;-69
2021/03/28 03:08:55;;;;;;;11.63;3.03;;;7.60;99.90;;;;;;4190688;28;20044;-69
2021/03/28 03:11:18;;;;;;;14.68;2.90;;;7.60;99.90;;;;;;4186275;28;20036;-69
2021/03/28 03:13:37;;;;;;;9.10;2.70;;;7.60;99.90;;;;;;4183980;28;20071;-69
2021/03/28 03:16:01;;;;;;;9.65;2.78;;;7.70;99.90;;;;;;4178989;28;20115;-69
2021/03/28 03:18:07;;;;;;;;;;;7.60;99.90;;;;;;4159782;28;20057;-69
2021/03/28 03:20:38;;;;;;;10.85;2.75;;;7.60;99.90;;;;;;4166653;28;19912;-69
2021/03/28 03:23:00;;;;;;;7.93;2.65;;;7.60;99.90;;;;;;4192209;28;20040;-69
2021/03/28 03:25:27;;;;;;;11.68;2.78;;;7.60;99.90;;;;;;4190747;28;20044;-69
2021/03/28 03:27:49;;;;;;;7.78;2.75;;;7.60;99.90;;;;;;4185035;28;20036;-69
2021/03/28 03:30:07;;;;;;;8.93;3.00;;;7.70;99.90;;;;;;4192578;28;20431;-69
2021/03/28 03:32:14;;;;;;;8.80;2.95;;;7.70;99.90;;;;;;4185569;28;20392;-69
2021/03/28 03:34:26;;;;;;;8.25;3.30;;;7.70;99.90;;;;;;4182693;28;20520;-69
2021/03/28 03:36:50;;;;;;;10.05;2.67;;;7.60;99.90;;;;;;4192244;28;20051;-69
2021/03/28 03:39:17;;;;;;;12.82;3.08;;;7.70;99.90;;;;;;4192216;28;20450;-69
2021/03/28 03:41:38;;;;;;;7.50;3.20;;;7.60;99.90;;;;;;4185748;28;20036;-69
2021/03/28 03:44:02;;;;;;;14.07;3.00;;;7.60;99.90;;;;;;4192266;28;20040;-69
2021/03/28 03:46:28;;;;;;;6.28;2.55;;;7.60;99.90;;;;;;4176130;28;20083;-69
2021/03/28 03:49:07;;;;;;;10.50;3.25;;;7.60;99.90;;;;;;4172247;28;20045;-69
2021/03/28 03:51:34;;;;;;;13.73;3.13;;;7.60;99.90;;;;;;4169294;28;20106;-69
2021/03/28 03:54:01;;;;;;;7.53;2.45;;;7.60;99.90;;;;;;4167531;28;20032;-69
2021/03/28 03:56:23;;;;;;;7.93;2.55;;;7.60;99.90;;;;;;4174342;28;20067;-69
2021/03/28 03:59:09;;;;;;;9.15;2.53;;;7.50;99.90;;;;;;4184525;28;20040;-69
2021/03/28 04:01:12;;;;;;;7.90;2.65;;;7.50;99.90;;;;;;4167534;28;20407;-69
2021/03/28 04:03:22;;;;;;;8.65;2.60;;;7.50;99.90;;;;;;4175513;28;20041;-69
2021/03/28 04:05:49;;;;;;;8.80;2.80;;;7.50;99.90;;;;;;4156949;28;20565;-69
2021/03/28 04:08:26;;;;;;;11.73;3.00;;;7.50;99.90;;;;;;4173819;28;20037;-69
2021/03/28 04:10:34;;;;;;;9.60;2.58;;;7.40;99.90;;;;;;4174950;28;20060;-69
2021/03/28 04:13:02;;;;;;;9.52;2.72;;;7.40;99.90;;;;;;4172986;28;20048;-69
2021/03/28 04:15:22;;;;;;;4.72;1.95;;;7.40;99.90;;;;;;4177955;28;20032;-69
2021/03/28 04:17:46;;;;;;;9.93;2.85;;;7.50;99.90;;;;;;4177190;28;20033;-69
2021/03/28 04:19:56;;;;;;;11.98;3.25;;;7.50;99.90;;;;;;4179109;28;20730;-69
2021/03/28 04:22:27;;;;;;;12.20;2.92;;;7.50;99.90;;;;;;4177165;28;20174;-69
2021/03/28 04:24:53;;;;;;;8.93;3.17;;;7.50;99.90;;;;;;4178733;28;20037;-69
2021/03/28 04:27:31;;;;;;;8.57;2.58;;;7.50;99.90;;;;;;4179141;28;20376;-69
2021/03/28 04:29:32;;;;;;;7.07;2.25;;;7.50;99.90;;;;;;4192342;28;20055;-69
2021/03/28 04:31:54;;;;;;;8.07;2.35;;;7.50;99.90;;;;;;4180632;28;20044;-69
2021/03/28 04:34:21;;;;;;;11.68;2.50;;;7.50;99.90;;;;;;4206429;28;20115;-69
2021/03/28 04:36:50;;;;;;;8.68;2.45;;;7.50;99.90;;;;;;4187433;28;20028;-69
2021/03/28 04:39:24;;;;;;;8.73;2.70;;;7.50;99.90;;;;;;4194933;28;20028;-69
2021/03/28 04:41:43;;;;;;;8.10;2.50;;;7.50;99.90;;;;;;4187105;28;20115;-69
2021/03/28 04:44:01;;;;;;;9.23;2.33;;;7.50;99.90;;;;;;4195370;28;20177;-69
2021/03/28 04:46:28;;;;;;;7.95;2.80;;;7.50;99.90;;;;;;4194494;28;20111;-69
2021/03/28 04:48:43;;;;;;;10.10;2.63;;;7.50;99.90;;;;;;4190843;28;20064;-69
2021/03/28 04:51:02;;;;;;;7.88;2.50;;;7.50;99.90;;;;;;4193802;28;20028;-69
2021/03/28 04:53:30;;;;;;;13.07;2.88;;;7.50;99.90;;;;;;4193179;28;20029;-69
2021/03/28 04:56:13;;;;;;;8.80;2.70;;;7.50;99.90;;;;;;4194970;28;20033;-69
2021/03/28 04:58:14;;;;;;;11.73;2.70;;;7.50;99.90;;;;;;4181424;28;20060;-69
2021/03/28 05:00:43;;;;;;;5.72;2.17;;;7.40;99.90;;;;;;4195003;28;20089;-69
2021/03/28 05:03:11;;;;;;;5.97;2.15;;;7.40;99.90;;;;;;4194681;28;20040;-69
2021/03/28 05:05:48;;;;;;;9.93;2.42;;;7.50;99.90;;;;;;4194657;28;20036;-69
2021/03/28 05:08:22;;;;;;;10.68;2.65;;;7.40;99.90;;;;;;4193188;28;20056;-69
2021/03/28 05:10:42;;;;;;;8.15;2.35;;;7.40;99.90;;;;;;4185669;28;20801;-69
2021/03/28 05:13:03;;;;;;;13.43;3.00;;;7.50;99.90;;;;;;4193643;28;20056;-69
2021/03/28 05:15:41;;;;;;;8.63;2.13;;;7.40;99.90;;;;;;4193732;28;20039;-69
2021/03/28 05:18:19;;;;;;;6.28;2.30;;;7.40;99.90;;;;;;4174025;28;20365;-69
2021/03/28 05:20:54;;;;;;;9.48;2.40;;;7.40;99.90;;;;;;4178242;28;20504;-69
2021/03/28 05:23:18;;;;;;;5.40;1.80;;;7.40;99.90;;;;;;4175788;28;20044;-69
2021/03/28 05:25:49;;;;;;;7.55;2.25;;;7.40;99.90;;;;;;4194161;28;20059;-69
2021/03/28 05:28:11;;;;;;;9.02;2.42;;;7.40;99.90;;;;;;4192567;28;20032;-69
2021/03/28 05:30:45;;;;;;;9.68;2.40;;;7.40;99.90;;;;;;4160178;28;20041;-69
2021/03/28 05:32:54;;;;;;;9.73;2.28;;;7.40;99.90;;;;;;4194925;28;20028;-69
2021/03/28 05:35:01;;;;;;;7.30;1.95;;;7.50;99.90;;;;;;4209335;28;20528;-69
2021/03/28 05:37:17;;;;;;;7.68;1.88;;;7.50;99.90;;;;;;4203703;28;20724;-69
2021/03/28 05:39:39;;;;;;;5.65;2.13;;;7.50;99.90;;;;;;4210041;28;20028;-69
2021/03/28 05:41:55;;;;;;;5.25;2.25;;;7.50;99.90;;;;;;4203206;28;20040;-69
2021/03/28 05:44:19;;;;;;;5.78;1.63;;;7.50;99.90;;;;;;4205090;28;20051;-69
2021/03/28 05:46:41;;;;;;;4.80;1.95;;;7.50;99.90;;;;;;4194572;28;20024;-69
2021/03/28 05:49:15;;;;;;;6.20;1.77;;;7.50;99.90;;;;;;4205507;28;20115;-69
2021/03/28 05:51:54;;;;;;;6.63;1.58;;;7.50;99.90;;;;;;4208512;28;20035;-69
2021/03/28 05:54:23;;;;;;;4.80;1.90;;;7.60;99.90;;;;;;4198678;28;20043;-69
2021/03/28 05:57:01;;;;;;;8.63;2.33;;;7.60;99.90;;;;;;4194716;28;20040;-69
2021/03/28 05:59:40;;;;;;;8.90;2.53;;;7.60;99.90;;;;;;4199168;28;20040;-69
2021/03/28 06:02:11;;;;;;;4.85;1.98;;;7.70;99.90;;;;;;4203261;28;20484;-69
2021/03/28 06:04:31;;;;;;;7.13;2.22;;;7.70;99.90;;;;;;4175074;28;20037;-69
2021/03/28 06:07:10;;;;;;;9.77;2.20;;;7.70;99.90;;;;;;4173356;28;20025;-69
2021/03/28 06:09:38;;;;;;;8.43;2.22;;;7.70;99.90;;;;;;4171885;28;20026;-69
2021/03/28 06:11:48;;;;;;;7.35;2.22;;;7.70;99.90;;;;;;4190593;28;20036;-69
2021/03/28 06:13:57;;;;;;;5.63;1.98;;;7.80;99.90;;;;;;4191454;28;20032;-69
2021/03/28 06:16:15;;;;;;;7.70;2.53;;;7.80;99.90;;;;;;4184684;28;20033;-69
2021/03/28 06:18:53;;;;;;;7.85;2.45;;;7.80;99.90;;;;;;4187576;28;20036;-69
2021/03/28 06:21:00;;;;;;;7.43;2.20;;;7.80;99.90;;;;;;4183451;28;20033;-69
2021/03/28 06:23:23;;;;;;;7.15;1.77;;;7.80;99.90;;;;;;4173613;28;20035;-69
2021/03/28 06:25:38;;;;;;;6.68;2.10;;;7.80;99.90;;;;;;4186532;28;20114;-69
2021/03/28 06:28:10;;;;;;;9.55;2.30;;;7.90;99.90;;;;;;4172824;28;20040;-69
2021/03/28 06:30:41;;;;;;;7.70;1.75;;;7.90;99.90;;;;;;4188525;28;20030;-69
2021/03/28 06:32:50;;;;;;;5.80;1.88;;;7.90;99.90;;;;;;4176036;28;20061;-69
2021/03/28 06:35:10;;;;;;;11.15;2.70;;;8.00;99.90;;;;;;4170168;28;20099;-69
2021/03/28 06:37:45;;;;;;;7.68;2.45;;;8.00;99.90;;;;;;4178191;28;20353;-69
2021/03/28 06:40:07;;;;;;;5.85;2.10;;;8.00;99.90;;;;;;4186364;28;20037;-69
2021/03/28 06:42:38;;;;;;;10.43;2.40;;;8.10;99.90;;;;;;4188194;28;20053;-69
2021/03/28 06:45:06;;;;;;;10.50;2.33;;;8.10;99.90;;;;;;4186618;28;20044;-69
2021/03/28 06:47:38;;;;;;;8.93;2.45;;;8.10;99.90;;;;;;4185046;28;20083;-69
2021/03/28 06:50:06;;;;;;;9.18;2.53;;;8.20;99.90;;;;;;4188061;28;20043;-69
2021/03/28 06:52:15;;;;;;;13.90;2.47;;;8.20;99.90;;;;;;4185468;28;20045;-70
2021/03/28 06:54:34;;;;;;;7.68;2.15;;;8.20;99.90;;;;;;4169897;28;20485;-70
2021/03/28 06:56:50;;;;;;;9.30;2.80;;;8.30;99.90;;;;;;4186992;28;20036;-70
2021/03/28 06:58:54;;;;;;;8.40;2.78;;;8.40;99.90;;;;;;4185658;28;20040;-70
2021/03/28 07:01:26;;;;;;;9.23;2.60;;;8.40;99.90;;;;;;4185550;28;20117;-70
2021/03/28 07:04:00;;;;;;;8.10;2.15;;;8.40;99.90;;;;;;4187300;28;20036;-70
2021/03/28 07:06:13;;;;;;;7.55;2.25;;;8.50;99.90;;;;;;4178821;28;20033;-70
2021/03/28 07:08:39;;;;;;;12.27;2.53;;;8.50;99.90;;;;;;4185906;28;20104;-70
2021/03/28 07:11:02;;;;;;;7.00;2.05;;;8.50;99.90;;;;;;4177122;28;20045;-70
2021/03/28 07:13:15;;;;;;;6.60;2.00;;;8.60;99.90;;;;;;4182509;28;20041;-70
2021/03/28 07:15:42;;;;;;;12.13;2.45;;;8.60;99.90;;;;;;4185659;28;20098;-70
2021/03/28 07:18:07;;;;;;;11.10;2.35;;;8.70;99.90;;;;;;4185241;28;20450;-70
2021/03/28 07:20:16;;;;;;;5.82;2.17;;;8.70;99.90;;;;;;4174518;28;20136;-70
2021/03/28 07:22:28;;;;;;;5.78;1.98;;;8.70;99.90;;;;;;4174255;28;20094;-71
2021/03/28 07:24:50;;;;;;;10.97;2.37;;;8.80;99.90;;;;;;4170619;28;20102;-70
2021/03/28 07:27:23;;;;;;;5.07;1.90;;;8.90;99.90;;;;;;4184283;28;20048;-70
2021/03/28 07:29:36;;;;;;;9.20;2.13;;;8.90;99.90;;;;;;4189066;28;20028;-70
2021/03/28 07:31:48;;;;;;;9.20;2.88;;;9.00;99.90;;;;;;4175843;28;20036;-70
2021/03/28 07:34:22;;;;;;;12.98;2.88;;;9.00;99.90;;;;;;4186494;28;20021;-70
2021/03/28 07:36:54;;;;;;;9.63;2.13;;;9.10;99.90;;;;;;4186258;28;20119;-70
2021/03/28 07:39:27;;;;;;;7.95;2.20;;;9.20;99.90;;;;;;4187659;28;20082;-70
2021/03/28 07:41:54;;;;;;;9.52;2.58;;;9.30;99.90;;;;;;4152960;28;20033;-70
2021/03/28 07:44:44;;;;;;;8.75;2.30;;;9.30;99.90;;;;;;4172899;28;20067;-69
2021/03/28 07:47:09;;;;;;;6.63;2.03;;;9.40;99.90;;;;;;4182879;28;20045;-69
2021/03/28 07:49:31;;;;;;;12.40;2.50;;;9.40;99.90;;;;;;4175929;28;20040;-69
2021/03/28 07:52:26;;;;;;;11.23;2.90;;;9.50;99.90;;;;;;4172711;28;20167;-69
2021/03/28 07:54:39;;;;;;;8.60;2.72;;;9.60;99.90;;;;;;4182563;28;20114;-70
2021/03/28 07:57:30;;;;;;;4.28;2.03;;;9.70;99.90;;;;;;4184486;28;20029;-69
2021/03/28 07:59:52;;;;;;;9.02;2.28;;;9.80;99.90;;;;;;4157935;28;20191;-69
2021/03/28 08:02:30;;;;;;;9.20;2.60;;;9.90;99.90;;;;;;4163621;28;20052;-69
2021/03/28 08:05:16;;;;;;;12.20;2.63;;;10.00;99.90;;;;;;4151649;28;20032;-70
2021/03/28 08:07:46;;;;;;;7.25;2.05;;;10.10;99.90;;;;;;4165069;28;20041;-70
2021/03/28 08:10:18;;;;;;;8.10;2.22;;;10.20;99.90;;;;;;4168046;28;20040;-70
2021/03/28 08:12:50;;;;;;;7.35;2.42;;;10.30;99.90;;;;;;4179919;28;20036;-69
2021/03/28 08:15:10;;;;;;;7.55;2.42;;;10.40;99.90;;;;;;4158436;28;20033;-70
2021/03/28 08:17:22;;;;;;;7.55;2.20;;;10.60;99.90;;;;;;4164127;28;20032;-69
2021/03/28 08:19:57;;;;;;;8.18;2.90;;;10.70;99.90;;;;;;4173023;28;20547;-69
2021/03/28 08:22:04;;;;;;;10.48;2.92;;;10.80;99.90;;;;;;4176653;28;20041;-70
2021/03/28 08:24:36;;;;;;;11.48;3.13;;;10.90;99.90;;;;;;4183530;28;20037;-70
2021/03/28 08:26:40;;;;;;;6.88;2.50;;;11.00;99.90;;;;;;4185124;28;20025;-70
2021/03/28 08:29:25;;;;;;;10.90;2.83;;;11.10;99.90;;;;;;4181223;28;20124;-70
2021/03/28 08:31:54;;;;;;;9.68;2.50;;;11.30;99.90;;;;;;4160083;28;20030;-70
2021/03/28 08:34:14;;;;;;;6.38;2.13;;;11.40;99.90;;;;;;4168394;28;20564;-70
2021/03/28 08:36:41;;;;;;;13.65;2.78;;;11.50;99.90;;;;;;4187764;28;20037;-70
2021/03/28 08:39:10;;;;;;;6.75;2.30;;;11.60;99.90;;;;;;4178754;28;20095;-70
2021/03/28 08:41:21;;;;;;;13.43;2.92;;;11.70;99.90;;;;;;4184584;28;20047;-70
2021/03/28 08:43:22;;;;;;;8.25;2.22;;;11.80;99.90;;;;;;4184275;28;20029;-70
2021/03/28 08:45:52;;;;;;;9.25;3.10;;;11.90;99.90;;;;;;4183958;28;20405;-70
2021/03/28 08:48:14;;;;;;;7.18;2.70;;;12.00;99.90;;;;;;4188013;28;20047;-70
2021/03/28 08:50:15;;;;;;;9.10;2.45;;;12.10;99.90;;;;;;4186960;28;20035;-70
2021/03/28 08:52:55;;;;;;;9.95;2.53;;;12.20;99.90;;;;;;4188879;28;20556;-70
2021/03/28 08:55:24;;;;;;;8.68;2.53;;;12.30;99.90;;;;;;4182980;28;20692;-69
2021/03/28 08:57:25;;;;;;;10.13;2.60;;;12.40;99.90;;;;;;4185459;28;20041;-69
2021/03/28 08:59:43;;;;;;;10.60;2.92;;;12.50;99.90;;;;;;4180426;28;20699;-69
2021/03/28 09:02:09;;;;;;;6.68;2.20;;;12.60;99.90;;;;;;4184436;28;20070;-69
2021/03/28 09:04:34;;;;;;;13.77;3.05;;;12.60;99.90;;;;;;4185638;28;20045;-68
2021/03/28 09:07:05;;;;;;;7.43;2.70;;;12.70;99.90;;;;;;4183978;28;20028;-69
2021/03/28 09:09:44;;;;;;;8.98;2.95;;;12.90;99.90;;;;;;4187633;28;20040;-69
2021/03/28 09:12:01;;;;;;;7.63;2.10;;;13.00;99.90;;;;;;4176220;28;20052;-69
2021/03/28 09:14:33;;;;;;;8.68;2.55;;;13.10;99.90;;;;;;4188848;28;20128;-69
2021/03/28 09:16:59;;;;;;;8.52;2.33;;;13.20;99.90;;;;;;4188494;28;20021;-69
2021/03/28 09:19:12;;;;;;;13.75;3.03;;;13.40;99.90;;;;;;4198871;28;20660;-69
2021/03/28 09:21:40;;;;;;;8.70;2.83;;;13.30;99.90;;;;;;4189675;28;20043;-69
2021/03/28 09:24:06;;;;;;;6.90;2.05;;;13.30;99.90;;;;;;4191242;28;20659;-69
2021/03/28 09:26:35;;;;;;;8.80;2.67;;;13.30;99.90;;;;;;4175225;28;20033;-69
2021/03/28 09:29:13;;;;;;;7.55;2.00;;;13.30;99.90;;;;;;4185993;28;20038;-69
2021/03/28 09:31:46;;;;;;;11.32;2.80;;;13.20;99.90;;;;;;4183404;28;20049;-69
2021/03/28 09:33:56;;;;;;;10.50;2.28;;;13.30;99.90;;;;;;4184549;28;20067;-69
2021/03/28 09:36:11;;;;;;;8.38;2.60;;;13.30;99.90;;;;;;4188868;28;20041;-69
2021/03/28 09:38:33;;;;;;;6.15;1.75;;;13.40;99.90;;;;;;4189755;28;20051;-69
2021/03/28 09:40:39;;;;;;;8.85;2.30;;;13.50;99.90;;;;;;4184187;28;20039;-69
2021/03/28 09:42:52;;;;;;;9.00;2.30;;;13.60;99.90;;;;;;4188039;28;20622;-69
2021/03/28 09:45:13;;;;;;;8.70;1.73;;;13.60;99.90;;;;;;4188323;28;20025;-69
2021/03/28 09:47:20;;;;;;;7.63;2.08;;;13.70;99.90;;;;;;4176767;28;20036;-69
2021/03/28 09:49:37;;;;;;;5.93;1.95;;;13.80;99.90;;;;;;4177293;28;20369;-69
2021/03/28 09:52:02;;;;;;;6.30;1.65;;;13.80;98.70;;;;;;4170962;28;20041;-69
2021/03/28 09:54:32;;;;;;;4.38;1.45;;;13.80;99.90;;;;;;4166721;28;20102;-69
2021/03/28 09:57:05;;;;;;;4.78;1.70;;;13.90;91.20;;;;;;4169641;28;20033;-69
2021/03/28 09:59:27;;;;;;;7.30;2.08;;;13.90;92.50;;;;;;4172620;28;20075;-69
2021/03/28 10:02:01;;;;;;;5.28;1.33;;;13.90;91.20;;;;;;4172727;28;20037;-69
2021/03/28 10:04:01;;;;;;;8.57;2.10;;;14.00;85.80;;;;;;4150429;28;20040;-68
2021/03/28 10:06:05;;;;;;;8.20;1.98;;;14.00;90.50;;;;;;4170398;28;20046;-69
2021/03/28 10:08:17;;;;;;;8.35;1.70;;;14.10;90.70;;;;;;4170186;28;20035;-69
2021/03/28 10:10:26;;;;;;;9.73;2.25;;;14.10;92.60;;;;;;4187279;28;20045;-69
2021/03/28 10:12:41;;;;;;;7.55;2.05;;;14.10;88.80;;;;;;4187909;28;20028;-69
2021/03/28 10:15:18;;;;;;;7.18;1.67;;;14.10;91.60;;;;;;4168498;28;20048;-69
2021/03/28 10:17:43;;;;;;;6.10;1.92;;;14.20;93.50;;;;;;4189705;28;20052;-69
2021/03/28 10:19:48;;;;;;;7.35;2.22;;;14.30;94.10;;;;;;4188267;28;20037;-69
2021/03/28 10:22:04;;;;;;;12.60;2.63;;;14.40;93.70;;;;;;4188001;28;20465;-69
2021/03/28 10:24:35;;;;;;;6.55;1.60;;;14.50;95.80;;;;;;4185836;28;20021;-69
2021/03/28 10:26:47;;;;;;;8.90;2.30;;;14.50;93.40;;;;;;4188982;28;20045;-69
2021/03/28 10:29:00;;;;;;;8.20;1.88;;;14.60;94.00;;;;;;4189865;28;20048;-69
2021/03/28 10:31:25;;;;;;;6.80;1.60;;;14.60;93.30;;;;;;4189774;28;20519;-69
2021/03/28 10:33:32;;;;;;;6.10;1.88;;;14.60;91.70;;;;;;4189116;28;20032;-69
2021/03/28 10:35:51;;;;;;;9.98;2.10;;;14.50;88.00;;;;;;4187341;28;20076;-69
2021/03/28 10:38:06;;;;;;;7.07;1.98;;;14.40;90.90;;;;;;4193060;28;20590;-69
2021/03/28 10:40:33;;;;;;;6.13;2.10;;;14.40;90.60;;;;;;4188036;28;20033;-69
2021/03/28 10:43:02;;;;;;;10.82;2.20;;;14.40;87.00;;;;;;4182716;28;20033;-69
2021/03/28 10:45:15;;;;;;;7.72;2.20;;;14.40;90.60;;;;;;4190891;28;20667;-69
2021/03/28 10:47:37;;;;;;;12.55;2.10;;;14.40;87.70;;;;;;4182904;28;20039;-69
2021/03/28 10:49:56;;;;;;;5.63;2.15;;;14.40;89.10;;;;;;4186585;28;20033;-69
2021/03/28 10:52:32;;;;;;;10.02;2.28;;;14.50;91.50;;;;;;4189505;28;20039;-69
2021/03/28 10:54:49;;;;;;;8.00;2.00;;;14.50;90.90;;;;;;4176892;28;20728;-69
2021/03/28 10:57:20;;;;;;;5.50;1.80;;;14.60;94.50;;;;;;4191378;28;20036;-69
2021/03/28 10:59:27;;;;;;;8.38;2.47;;;14.60;94.90;;;;;;4167673;28;20094;-69
2021/03/28 11:02:10;;;;;;;8.30;2.20;;;14.60;91.40;;;;;;4185470;28;20029;-69
2021/03/28 11:04:41;;;;;;;7.13;2.17;;;14.60;92.50;;;;;;4175571;28;20039;-69
2021/03/28 11:07:08;;;;;;;7.03;1.95;;;14.50;91.90;;;;;;4184482;28;20037;-69
2021/03/28 11:09:11;;;;;;;9.48;2.47;;;14.60;92.00;;;;;;4187712;28;20048;-69
2021/03/28 11:11:28;;;;;;;5.82;2.00;;;14.50;90.20;;;;;;4188244;28;20067;-69
2021/03/28 11:13:48;;;;;;;10.60;2.17;;;14.50;90.70;;;;;;4191901;28;20494;-69
2021/03/28 11:16:06;;;;;;;7.97;2.05;;;14.40;90.30;;;;;;4184527;28;20040;-69
2021/03/28 11:18:25;;;;;;;7.18;1.85;;;14.50;92.00;;;;;;4184633;28;20127;-69
2021/03/28 11:20:40;;;;;;;10.43;2.33;;;14.60;91.10;;;;;;4179948;28;20032;-69
2021/03/28 11:23:09;;;;;;;8.23;2.58;;;14.60;91.80;;;;;;4188678;28;20033;-69
2021/03/28 11:25:28;;;;;;;9.30;2.50;;;14.60;92.40;;;;;;4184320;28;20094;-69
2021/03/28 11:27:52;;;;;;;5.97;1.90;;;14.70;93.00;;;;;;4187608;28;20108;-69
2021/03/28 11:30:16;;;;;;;8.70;2.85;;;14.70;92.70;;;;;;4184721;28;20043;-69
2021/03/28 11:32:41;;;;;;;7.15;2.38;;;14.80;93.40;;;;;;4178528;28;20521;-69
2021/03/28 11:35:09;;;;;;;7.82;2.20;;;14.70;91.30;;;;;;4189541;28;20094;-69
2021/03/28 11:37:41;;;;;;;9.93;2.45;;;14.50;87.50;;;;;;4188716;28;20115;-69
2021/03/28 11:40:17;;;;;;;6.38;1.90;;;14.50;89.70;;;;;;4184789;28;20135;-69
2021/03/28 11:42:24;;;;;;;9.18;1.92;;;14.50;85.60;;;;;;4161178;28;20033;-69
2021/03/28 11:45:00;;;;;;;6.40;2.03;;;14.50;89.20;;;;;;4181098;28;20044;-69
2021/03/28 11:47:19;;;;;;;7.38;1.70;;;14.60;90.30;;;;;;4189089;28;20054;-69
2021/03/28 11:49:23;;;;;;;7.65;1.80;;;14.50;80.00;;;;;;4185541;28;20036;-69
2021/03/28 11:51:31;;;;;;;7.30;1.58;;;14.60;76.60;;;;;;4185584;28;20062;-69
2021/03/28 11:53:36;;;;;;;10.48;1.90;;;14.60;85.60;;;;;;4188846;28;20636;-69
2021/03/28 11:55:53;;;;;;;7.47;1.65;;;14.60;83.10;;;;;;4181680;28;20125;-69
2021/03/28 11:58:12;;;;;;;8.30;2.08;;;14.60;82.90;;;;;;4184542;28;20040;-69
2021/03/28 12:00:46;;;;;;;8.18;2.20;;;14.60;81.80;;;;;;4187228;28;20074;-69
2021/03/28 12:03:19;;;;;;;6.05;1.90;;;14.60;80.50;;;;;;4184363;28;20031;-69
2021/03/28 12:05:48;;;;;;;5.57;1.93;;;14.60;83.20;;;;;;4187883;28;20036;-69
2021/03/28 12:08:08;;;;;;;7.00;2.00;;;14.70;84.10;;;;;;4185361;28;20285;-69
2021/03/28 12:10:08;;;;;;;5.18;1.80;;;14.70;83.40;;;;;;4183891;28;20031;-69
2021/03/28 12:12:25;;;;;;;6.07;1.85;;;14.70;81.60;;;;;;4184390;28;20029;-69
2021/03/28 12:14:31;;;;;;;6.28;1.63;;;14.80;84.50;;;;;;4184167;28;20029;-69
2021/03/28 12:17:05;;;;;;;6.50;1.60;;;14.80;81.20;;;;;;4179797;28;20431;-69